Tropical Cyclones
[Index]
Main Index Home Page Stock Weather Photos Extreme Storms Discussion Storm News and Storm Chasing Reports Tropical Cyclones / Hurricanes / Typhoons Weather Data and Links Wild Fires / Bushfires Weather Observation Techniques Weather Picture Catalogue Tornado Pictures and Reports Stock Video Footage and DVDs for sale
Season 1968-1969 Tropical Cyclone 196933 Track Map
Season 1968-1969 Summaries: [BoM-AU] [JTWC-AU] [JTWC-SIO] [JTWC-SPAC] [JTWC-SH]
<<- Previous TC | JTWC 1968-1969 Season | Next TC ->>

click for intensity scale information  Lat/long Grid: Show Hide

 Date Labels: Show Hide

Joint Typhoon Warning Centre Cyclone Data

Name: 196933
Number: 711 / 6933

08 Apr 1969 12:00 UTC to 15 Apr 1969 18:00 UTC

    date/time    lat    long     hPa   cat  kts
1969-04-08 12   11.3   156.0                  10          
1969-04-08 18   11.2   155.8                  15          
1969-04-09 00   11.1   155.7                  15          
1969-04-09 06   11.0   155.5                  10          
1969-04-09 12   10.9   155.3                  05          
1969-04-09 18   10.8   155.1                  15          
1969-04-10 00   10.9   154.9                  25          
1969-04-10 06   11.1   154.7                  30          
1969-04-10 12   11.2   154.5                  30          
1969-04-10 18   11.4   154.3                  20          
1969-04-11 00   11.5   154.2                  15          
1969-04-11 06   11.7   154.0                  20          
1969-04-11 12   11.8   153.9                  25          
1969-04-11 18   12.0   153.7                  20          
1969-04-12 00   12.2   153.6                  20          
1969-04-12 06   12.5   153.3                  25          
1969-04-12 12   12.7   153.0                  25          
1969-04-12 18   13.1   152.6                  25          
1969-04-13 00   13.5   152.3                  25          
1969-04-13 06   13.9   152.2                  25          
1969-04-13 12   14.4   152.2                  25          
1969-04-13 18   14.8   152.3                  25          
1969-04-14 00   15.3   152.3                  25          
1969-04-14 06   15.8   152.4                  30          
1969-04-14 12   16.3   152.5                  30          
1969-04-14 18   16.8   152.8                  25          
1969-04-15 00   17.5   153.3                  20          
1969-04-15 06   18.9   155.2                  20          
1969-04-15 12   20.3   156.9                  20          
1969-04-15 18   21.3   157.7                  20          
Winds are 1-min average.

Tropical cyclone tracks developed by Michael Bath using data from the Joint Typhoon Warning Centre Best Tracks and Google Maps.


[Australian Severe Weather index] [Copyright Notice] [Email Contacts] [Search This Site] [Privacy Policy]
Document: tropical_cyclone_196933.htm Updated: 18 September 2016